Date,TemperatureHighF,TemperatureAvgF,TemperatureLowF,DewpointHighF,DewpointAvgF,DewpointLowF,HumidityHigh,HumidityAvg,HumidityLow,PressureMaxIn,PressureMinIn,WindSpeedMaxMPH,WindSpeedAvgMPH,GustSpeedMaxMPH,PrecipitationSumIn
2013-2-1,34,31,25,18,13,7,63,50,43,30.03,29.56,12,7,25,0.00
2013-2-2,32,27,21,27,14,6,92,61,39,30.21,30.00,12,5,26,0.00
2013-2-3,33,29,22,31,26,20,98,92,83,30.01,29.60,12,4,26,0.05
2013-2-4,33,27,24,26,16,9,95,66,43,29.90,29.63,13,7,27,0.11
2013-2-5,31,27,24,29,20,12,97,80,61,29.98,29.86,8,2,17,0.00
2013-2-6,40,33,30,33,27,15,99,82,55,30.22,29.84,9,3,20,0.09
2013-2-7,30,26,20,24,16,12,88,67,53,30.47,30.22,11,4,21,0.00
2013-2-8,36,33,30,33,29,24,99,90,81,30.43,29.24,15,6,41,0.40
2013-2-9,32,24,21,32,23,20,99,97,95,30.04,29.18,26,16,55,0.02
2013-2-10,34,25,16,28,22,14,96,90,74,30.33,30.04,14,6,33,0.24
2013-2-11,45,31,15,44,30,13,100,97,93,30.32,29.69,10,4,27,1.01
2013-2-12,47,41,35,34,30,27,91,69,54,29.83,29.62,13,8,27,0.01
2013-2-13,43,34,28,30,26,24,93,76,54,29.83,29.61,7,3,14,0.00
2013-2-14,44,35,27,36,30,24,98,85,54,29.98,29.63,8,2,18,0.20
2013-2-15,47,38,27,39,34,25,98,90,78,30.01,29.90,9,3,20,0.00
2013-2-16,40,34,27,36,32,25,100,95,86,29.90,29.57,10,4,21,0.01
2013-2-17,35,26,22,33,21,7,98,85,52,29.57,29.19,20,14,40,0.01
2013-2-18,34,25,18,11,7,4,64,49,34,30.11,29.57,20,11,35,0.01
2013-2-19,46,37,25,45,28,6,99,74,43,30.12,29.56,12,5,26,0.69
2013-2-20,43,35,27,42,25,12,99,71,49,29.73,29.50,14,7,26,0.02
2013-2-21,35,30,26,28,18,15,81,65,49,30.03,29.73,15,9,33,0.00
2013-2-22,38,35,32,30,28,26,88,78,67,30.30,30.03,13,4,29,0.00
2013-2-23,41,36,30,38,32,28,99,88,75,30.30,29.81,6,2,17,0.31
2013-2-24,44,40,33,43,38,32,99,99,98,29.81,29.49,11,5,24,1.15
2013-2-25,44,35,26,33,29,24,99,84,54,30.20,29.78,10,5,20,0.13
2013-2-26,47,34,22,36,28,20,100,82,51,30.29,30.10,5,1,14,0.01
2013-2-27,45,43,40,44,42,35,100,97,85,30.09,29.50,11,7,33,0.74
2013-2-28,45,40,36,41,38,35,100,96,86,29.60,29.45,7,2,17,0.00